sensor_id;sensor_type;location;lat;lon;timestamp;P1;durP1;ratioP1;P2;durP2;ratioP2
20734;SDS011;10528;52.124;5.196;2023-09-19T00:00:44;6.20;;;1.52;;
20734;SDS011;10528;52.124;5.196;2023-09-19T00:03:14;6.50;;;1.45;;
20734;SDS011;10528;52.124;5.196;2023-09-19T00:05:41;4.15;;;1.13;;
20734;SDS011;10528;52.124;5.196;2023-09-19T00:08:10;6.35;;;1.40;;
20734;SDS011;10528;52.124;5.196;2023-09-19T00:10:39;7.47;;;1.17;;
20734;SDS011;10528;52.124;5.196;2023-09-19T00:13:08;5.93;;;1.85;;
20734;SDS011;10528;52.124;5.196;2023-09-19T00:15:43;7.07;;;1.67;;
20734;SDS011;10528;52.124;5.196;2023-09-19T00:18:15;5.40;;;1.70;;
20734;SDS011;10528;52.124;5.196;2023-09-19T00:20:45;5.53;;;1.20;;
20734;SDS011;10528;52.124;5.196;2023-09-19T00:23:14;9.07;;;1.77;;
20734;SDS011;10528;52.124;5.196;2023-09-19T00:25:41;6.00;;;1.50;;
20734;SDS011;10528;52.124;5.196;2023-09-19T00:28:08;6.03;;;1.83;;
20734;SDS011;10528;52.124;5.196;2023-09-19T00:30:36;4.55;;;1.20;;
20734;SDS011;10528;52.124;5.196;2023-09-19T00:33:05;6.00;;;1.45;;
20734;SDS011;10528;52.124;5.196;2023-09-19T00:35:34;4.22;;;1.02;;
20734;SDS011;10528;52.124;5.196;2023-09-19T00:38:01;4.63;;;1.15;;
20734;SDS011;10528;52.124;5.196;2023-09-19T00:40:28;4.13;;;1.30;;
20734;SDS011;10528;52.124;5.196;2023-09-19T00:42:57;6.72;;;1.33;;
20734;SDS011;10528;52.124;5.196;2023-09-19T00:45:27;6.70;;;1.40;;
20734;SDS011;10528;52.124;5.196;2023-09-19T00:47:57;2.30;;;0.93;;
20734;SDS011;10528;52.124;5.196;2023-09-19T00:50:30;5.07;;;1.42;;
20734;SDS011;10528;52.124;5.196;2023-09-19T00:52:58;8.55;;;1.45;;
20734;SDS011;10528;52.124;5.196;2023-09-19T00:55:25;3.70;;;1.40;;
20734;SDS011;10528;52.124;5.196;2023-09-19T00:57:56;4.82;;;1.33;;
20734;SDS011;10528;52.124;5.196;2023-09-19T01:00:23;4.72;;;1.30;;
20734;SDS011;10528;52.124;5.196;2023-09-19T01:02:51;5.00;;;1.38;;
20734;SDS011;10528;52.124;5.196;2023-09-19T01:05:18;4.53;;;1.60;;
20734;SDS011;10528;52.124;5.196;2023-09-19T01:07:45;4.32;;;1.38;;
20734;SDS011;10528;52.124;5.196;2023-09-19T01:10:16;5.18;;;1.25;;
20734;SDS011;10528;52.124;5.196;2023-09-19T01:12:53;6.28;;;1.20;;
20734;SDS011;10528;52.124;5.196;2023-09-19T01:21:28;7.72;;;2.33;;
20734;SDS011;10528;52.124;5.196;2023-09-19T01:30:50;4.53;;;1.27;;
20734;SDS011;10528;52.124;5.196;2023-09-19T01:33:26;4.65;;;1.77;;
20734;SDS011;10528;52.124;5.196;2023-09-19T01:35:53;3.92;;;1.15;;
20734;SDS011;10528;52.124;5.196;2023-09-19T01:38:24;5.63;;;1.05;;
20734;SDS011;10528;52.124;5.196;2023-09-19T01:41:12;4.05;;;1.13;;
20734;SDS011;10528;52.124;5.196;2023-09-19T01:43:48;4.93;;;1.55;;
20734;SDS011;10528;52.124;5.196;2023-09-19T01:52:03;5.05;;;1.27;;
20734;SDS011;10528;52.124;5.196;2023-09-19T01:54:46;3.97;;;1.50;;
20734;SDS011;10528;52.124;5.196;2023-09-19T01:57:28;7.03;;;1.85;;
20734;SDS011;10528;52.124;5.196;2023-09-19T02:00:05;7.60;;;1.85;;
20734;SDS011;10528;52.124;5.196;2023-09-19T02:02:39;5.47;;;1.30;;
20734;SDS011;10528;52.124;5.196;2023-09-19T02:05:13;9.10;;;2.03;;
20734;SDS011;10528;52.124;5.196;2023-09-19T02:07:54;6.15;;;1.80;;
20734;SDS011;10528;52.124;5.196;2023-09-19T02:10:22;8.50;;;1.45;;
20734;SDS011;10528;52.124;5.196;2023-09-19T02:12:50;6.43;;;1.60;;
20734;SDS011;10528;52.124;5.196;2023-09-19T02:15:17;6.30;;;1.77;;
20734;SDS011;10528;52.124;5.196;2023-09-19T02:17:44;6.22;;;1.70;;
20734;SDS011;10528;52.124;5.196;2023-09-19T02:20:12;6.40;;;1.70;;
20734;SDS011;10528;52.124;5.196;2023-09-19T02:22:43;6.13;;;1.77;;
20734;SDS011;10528;52.124;5.196;2023-09-19T02:25:10;4.53;;;1.23;;
20734;SDS011;10528;52.124;5.196;2023-09-19T02:27:37;11.23;;;2.08;;
20734;SDS011;10528;52.124;5.196;2023-09-19T02:30:06;7.22;;;1.70;;
20734;SDS011;10528;52.124;5.196;2023-09-19T02:32:33;7.97;;;2.00;;
20734;SDS011;10528;52.124;5.196;2023-09-19T02:35:05;6.55;;;1.60;;
20734;SDS011;10528;52.124;5.196;2023-09-19T02:37:33;10.80;;;1.65;;
20734;SDS011;10528;52.124;5.196;2023-09-19T02:40:01;7.10;;;1.60;;
20734;SDS011;10528;52.124;5.196;2023-09-19T02:42:28;9.02;;;2.10;;
20734;SDS011;10528;52.124;5.196;2023-09-19T02:44:56;8.90;;;2.15;;
20734;SDS011;10528;52.124;5.196;2023-09-19T02:47:23;14.40;;;2.33;;
20734;SDS011;10528;52.124;5.196;2023-09-19T02:49:50;8.13;;;1.80;;
20734;SDS011;10528;52.124;5.196;2023-09-19T02:52:17;7.22;;;1.42;;
20734;SDS011;10528;52.124;5.196;2023-09-19T02:54:46;8.10;;;2.20;;
20734;SDS011;10528;52.124;5.196;2023-09-19T02:57:13;7.00;;;1.60;;
20734;SDS011;10528;52.124;5.196;2023-09-19T02:59:42;9.10;;;1.55;;
20734;SDS011;10528;52.124;5.196;2023-09-19T03:02:10;6.85;;;2.00;;
20734;SDS011;10528;52.124;5.196;2023-09-19T03:04:37;13.75;;;2.45;;
20734;SDS011;10528;52.124;5.196;2023-09-19T03:07:04;8.18;;;2.15;;
20734;SDS011;10528;52.124;5.196;2023-09-19T03:09:32;9.98;;;1.77;;
20734;SDS011;10528;52.124;5.196;2023-09-19T03:11:59;13.93;;;1.92;;
20734;SDS011;10528;52.124;5.196;2023-09-19T03:14:26;8.18;;;1.83;;
20734;SDS011;10528;52.124;5.196;2023-09-19T03:16:58;10.10;;;1.80;;
20734;SDS011;10528;52.124;5.196;2023-09-19T03:19:26;7.25;;;2.33;;
20734;SDS011;10528;52.124;5.196;2023-09-19T03:21:53;10.43;;;2.28;;
20734;SDS011;10528;52.124;5.196;2023-09-19T03:24:20;9.52;;;2.20;;
20734;SDS011;10528;52.124;5.196;2023-09-19T03:26:47;8.23;;;1.75;;
20734;SDS011;10528;52.124;5.196;2023-09-19T03:29:15;9.93;;;2.40;;
20734;SDS011;10528;52.124;5.196;2023-09-19T03:31:44;8.98;;;1.80;;
20734;SDS011;10528;52.124;5.196;2023-09-19T03:34:12;11.38;;;2.22;;
20734;SDS011;10528;52.124;5.196;2023-09-19T03:36:39;9.70;;;1.90;;
20734;SDS011;10528;52.124;5.196;2023-09-19T03:39:07;11.60;;;2.15;;
20734;SDS011;10528;52.124;5.196;2023-09-19T03:41:34;10.18;;;2.03;;
20734;SDS011;10528;52.124;5.196;2023-09-19T03:44:03;7.35;;;1.83;;
20734;SDS011;10528;52.124;5.196;2023-09-19T03:46:30;8.32;;;1.67;;
20734;SDS011;10528;52.124;5.196;2023-09-19T03:48:59;10.13;;;2.20;;
20734;SDS011;10528;52.124;5.196;2023-09-19T03:51:26;9.57;;;1.90;;
20734;SDS011;10528;52.124;5.196;2023-09-19T03:53:53;6.55;;;1.55;;
20734;SDS011;10528;52.124;5.196;2023-09-19T03:56:20;11.32;;;2.28;;
20734;SDS011;10528;52.124;5.196;2023-09-19T03:58:48;9.63;;;2.13;;
20734;SDS011;10528;52.124;5.196;2023-09-19T04:01:15;11.40;;;2.13;;
20734;SDS011;10528;52.124;5.196;2023-09-19T04:03:45;7.15;;;1.90;;
20734;SDS011;10528;52.124;5.196;2023-09-19T04:06:15;9.13;;;1.90;;
20734;SDS011;10528;52.124;5.196;2023-09-19T04:08:43;11.52;;;2.00;;
20734;SDS011;10528;52.124;5.196;2023-09-19T04:11:11;12.15;;;2.30;;
20734;SDS011;10528;52.124;5.196;2023-09-19T04:13:38;14.35;;;3.15;;
20734;SDS011;10528;52.124;5.196;2023-09-19T04:16:05;10.02;;;1.83;;
20734;SDS011;10528;52.124;5.196;2023-09-19T04:18:35;8.43;;;1.75;;
20734;SDS011;10528;52.124;5.196;2023-09-19T04:21:04;13.10;;;2.28;;
20734;SDS011;10528;52.124;5.196;2023-09-19T04:23:32;6.57;;;1.92;;
20734;SDS011;10528;52.124;5.196;2023-09-19T04:25:59;5.90;;;1.58;;
20734;SDS011;10528;52.124;5.196;2023-09-19T04:28:26;9.00;;;1.88;;
20734;SDS011;10528;52.124;5.196;2023-09-19T04:30:56;15.80;;;2.25;;
20734;SDS011;10528;52.124;5.196;2023-09-19T04:33:24;7.22;;;1.85;;
20734;SDS011;10528;52.124;5.196;2023-09-19T04:35:53;8.68;;;1.98;;
20734;SDS011;10528;52.124;5.196;2023-09-19T04:38:20;12.63;;;2.30;;
20734;SDS011;10528;52.124;5.196;2023-09-19T04:40:48;11.80;;;2.28;;
20734;SDS011;10528;52.124;5.196;2023-09-19T04:43:15;6.72;;;1.70;;
20734;SDS011;10528;52.124;5.196;2023-09-19T04:45:43;8.15;;;2.00;;
20734;SDS011;10528;52.124;5.196;2023-09-19T04:48:10;6.32;;;1.92;;
20734;SDS011;10528;52.124;5.196;2023-09-19T04:50:37;8.95;;;1.88;;
20734;SDS011;10528;52.124;5.196;2023-09-19T04:53:04;7.03;;;1.90;;
20734;SDS011;10528;52.124;5.196;2023-09-19T04:55:33;12.35;;;2.22;;
20734;SDS011;10528;52.124;5.196;2023-09-19T04:58:00;8.85;;;1.95;;
20734;SDS011;10528;52.124;5.196;2023-09-19T05:00:27;10.85;;;2.20;;
20734;SDS011;10528;52.124;5.196;2023-09-19T05:02:56;9.52;;;1.80;;
20734;SDS011;10528;52.124;5.196;2023-09-19T05:05:24;5.55;;;1.70;;
20734;SDS011;10528;52.124;5.196;2023-09-19T05:07:52;8.18;;;1.65;;
20734;SDS011;10528;52.124;5.196;2023-09-19T05:10:20;10.65;;;2.15;;
20734;SDS011;10528;52.124;5.196;2023-09-19T05:12:48;9.68;;;1.98;;
20734;SDS011;10528;52.124;5.196;2023-09-19T05:15:18;7.95;;;2.03;;
20734;SDS011;10528;52.124;5.196;2023-09-19T05:17:48;9.77;;;2.08;;
20734;SDS011;10528;52.124;5.196;2023-09-19T05:20:23;12.63;;;1.95;;
20734;SDS011;10528;52.124;5.196;2023-09-19T05:23:06;9.80;;;2.33;;
20734;SDS011;10528;52.124;5.196;2023-09-19T05:25:39;7.90;;;2.08;;
20734;SDS011;10528;52.124;5.196;2023-09-19T05:28:08;9.98;;;2.00;;
20734;SDS011;10528;52.124;5.196;2023-09-19T05:30:38;7.10;;;1.83;;
20734;SDS011;10528;52.124;5.196;2023-09-19T05:33:06;13.13;;;2.20;;
20734;SDS011;10528;52.124;5.196;2023-09-19T05:35:34;14.25;;;2.20;;
20734;SDS011;10528;52.124;5.196;2023-09-19T05:38:05;7.88;;;2.10;;
20734;SDS011;10528;52.124;5.196;2023-09-19T05:40:35;13.40;;;2.45;;
20734;SDS011;10528;52.124;5.196;2023-09-19T05:43:02;12.43;;;2.50;;
20734;SDS011;10528;52.124;5.196;2023-09-19T05:45:32;8.60;;;1.77;;
20734;SDS011;10528;52.124;5.196;2023-09-19T05:48:06;8.80;;;1.95;;
20734;SDS011;10528;52.124;5.196;2023-09-19T05:50:43;9.52;;;2.33;;
20734;SDS011;10528;52.124;5.196;2023-09-19T05:53:15;9.00;;;2.10;;
20734;SDS011;10528;52.124;5.196;2023-09-19T05:55:42;10.80;;;2.45;;
20734;SDS011;10528;52.124;5.196;2023-09-19T05:58:09;11.85;;;2.90;;
20734;SDS011;10528;52.124;5.196;2023-09-19T06:00:40;8.70;;;2.40;;
20734;SDS011;10528;52.124;5.196;2023-09-19T06:03:09;11.48;;;2.50;;
20734;SDS011;10528;52.124;5.196;2023-09-19T06:05:38;8.43;;;2.22;;
20734;SDS011;10528;52.124;5.196;2023-09-19T06:08:05;8.25;;;2.08;;
20734;SDS011;10528;52.124;5.196;2023-09-19T06:10:34;7.53;;;1.80;;
20734;SDS011;10528;52.124;5.196;2023-09-19T06:13:02;7.72;;;1.95;;
20734;SDS011;10528;52.124;5.196;2023-09-19T06:15:36;13.75;;;2.15;;
20734;SDS011;10528;52.124;5.196;2023-09-19T06:18:03;11.70;;;2.38;;
20734;SDS011;10528;52.124;5.196;2023-09-19T06:20:31;12.20;;;2.33;;
20734;SDS011;10528;52.124;5.196;2023-09-19T06:22:59;8.10;;;2.20;;
20734;SDS011;10528;52.124;5.196;2023-09-19T06:25:28;10.30;;;2.38;;
20734;SDS011;10528;52.124;5.196;2023-09-19T06:27:55;11.27;;;2.00;;
20734;SDS011;10528;52.124;5.196;2023-09-19T06:30:23;9.00;;;2.20;;
20734;SDS011;10528;52.124;5.196;2023-09-19T06:32:55;7.97;;;2.00;;
20734;SDS011;10528;52.124;5.196;2023-09-19T06:35:27;9.45;;;2.50;;
20734;SDS011;10528;52.124;5.196;2023-09-19T06:38:01;8.70;;;2.33;;
20734;SDS011;10528;52.124;5.196;2023-09-19T06:40:30;10.68;;;2.17;;
20734;SDS011;10528;52.124;5.196;2023-09-19T06:42:57;6.65;;;1.95;;
20734;SDS011;10528;52.124;5.196;2023-09-19T06:45:24;10.90;;;2.65;;
20734;SDS011;10528;52.124;5.196;2023-09-19T06:47:53;9.85;;;1.88;;
20734;SDS011;10528;52.124;5.196;2023-09-19T06:50:25;11.40;;;2.70;;
20734;SDS011;10528;52.124;5.196;2023-09-19T06:52:53;8.93;;;2.47;;
20734;SDS011;10528;52.124;5.196;2023-09-19T06:55:24;10.88;;;2.67;;
20734;SDS011;10528;52.124;5.196;2023-09-19T06:57:53;8.00;;;1.92;;
20734;SDS011;10528;52.124;5.196;2023-09-19T07:00:21;10.70;;;2.10;;
20734;SDS011;10528;52.124;5.196;2023-09-19T07:03:01;11.13;;;2.33;;
20734;SDS011;10528;52.124;5.196;2023-09-19T07:05:37;11.48;;;2.22;;
20734;SDS011;10528;52.124;5.196;2023-09-19T07:08:06;8.57;;;1.80;;
20734;SDS011;10528;52.124;5.196;2023-09-19T07:10:37;12.30;;;2.00;;
20734;SDS011;10528;52.124;5.196;2023-09-19T07:13:06;9.38;;;2.20;;
20734;SDS011;10528;52.124;5.196;2023-09-19T07:15:37;9.88;;;2.20;;
20734;SDS011;10528;52.124;5.196;2023-09-19T07:18:07;9.18;;;1.92;;
20734;SDS011;10528;52.124;5.196;2023-09-19T07:20:37;12.10;;;1.70;;
20734;SDS011;10528;52.124;5.196;2023-09-19T07:23:05;11.05;;;2.45;;
20734;SDS011;10528;52.124;5.196;2023-09-19T07:25:32;12.30;;;2.45;;
20734;SDS011;10528;52.124;5.196;2023-09-19T07:28:01;11.73;;;2.05;;
20734;SDS011;10528;52.124;5.196;2023-09-19T07:30:29;8.88;;;2.35;;
20734;SDS011;10528;52.124;5.196;2023-09-19T07:32:56;10.30;;;2.33;;
20734;SDS011;10528;52.124;5.196;2023-09-19T07:35:23;16.23;;;2.40;;
20734;SDS011;10528;52.124;5.196;2023-09-19T07:37:53;10.52;;;2.55;;
20734;SDS011;10528;52.124;5.196;2023-09-19T07:40:22;11.43;;;2.53;;
20734;SDS011;10528;52.124;5.196;2023-09-19T07:42:53;11.55;;;2.10;;
20734;SDS011;10528;52.124;5.196;2023-09-19T07:45:28;10.73;;;2.53;;
20734;SDS011;10528;52.124;5.196;2023-09-19T07:47:56;11.43;;;2.38;;
20734;SDS011;10528;52.124;5.196;2023-09-19T07:50:23;16.08;;;2.60;;
20734;SDS011;10528;52.124;5.196;2023-09-19T07:52:52;12.05;;;2.63;;
20734;SDS011;10528;52.124;5.196;2023-09-19T07:55:20;10.75;;;2.30;;
20734;SDS011;10528;52.124;5.196;2023-09-19T07:57:50;10.70;;;2.20;;
20734;SDS011;10528;52.124;5.196;2023-09-19T08:00:17;9.20;;;2.50;;
20734;SDS011;10528;52.124;5.196;2023-09-19T08:02:44;13.80;;;3.13;;
20734;SDS011;10528;52.124;5.196;2023-09-19T08:05:16;10.13;;;2.22;;
20734;SDS011;10528;52.124;5.196;2023-09-19T08:07:44;17.50;;;2.72;;
20734;SDS011;10528;52.124;5.196;2023-09-19T08:10:15;10.77;;;2.45;;
20734;SDS011;10528;52.124;5.196;2023-09-19T08:12:46;11.60;;;2.55;;
20734;SDS011;10528;52.124;5.196;2023-09-19T08:15:15;9.52;;;2.20;;
20734;SDS011;10528;52.124;5.196;2023-09-19T08:17:45;14.60;;;2.92;;
20734;SDS011;10528;52.124;5.196;2023-09-19T08:20:13;14.15;;;2.50;;
20734;SDS011;10528;52.124;5.196;2023-09-19T08:22:50;7.43;;;2.20;;
20734;SDS011;10528;52.124;5.196;2023-09-19T08:25:21;10.15;;;2.20;;
20734;SDS011;10528;52.124;5.196;2023-09-19T08:27:50;10.50;;;2.20;;
20734;SDS011;10528;52.124;5.196;2023-09-19T08:30:17;13.77;;;2.67;;
20734;SDS011;10528;52.124;5.196;2023-09-19T08:32:51;14.98;;;2.67;;
20734;SDS011;10528;52.124;5.196;2023-09-19T08:35:25;14.82;;;2.42;;
20734;SDS011;10528;52.124;5.196;2023-09-19T08:37:53;16.52;;;3.22;;
20734;SDS011;10528;52.124;5.196;2023-09-19T08:40:23;9.38;;;2.78;;
20734;SDS011;10528;52.124;5.196;2023-09-19T08:42:55;8.13;;;2.28;;
20734;SDS011;10528;52.124;5.196;2023-09-19T08:45:23;16.05;;;2.97;;
20734;SDS011;10528;52.124;5.196;2023-09-19T08:50:56;10.90;;;2.53;;
20734;SDS011;10528;52.124;5.196;2023-09-19T08:53:26;12.45;;;2.65;;
20734;SDS011;10528;52.124;5.196;2023-09-19T08:56:00;10.70;;;2.47;;
20734;SDS011;10528;52.124;5.196;2023-09-19T08:58:34;13.32;;;3.22;;
20734;SDS011;10528;52.124;5.196;2023-09-19T09:01:14;12.50;;;2.83;;
20734;SDS011;10528;52.124;5.196;2023-09-19T09:03:43;14.05;;;2.75;;
20734;SDS011;10528;52.124;5.196;2023-09-19T09:06:15;13.43;;;2.63;;
20734;SDS011;10528;52.124;5.196;2023-09-19T09:08:43;11.10;;;2.90;;
20734;SDS011;10528;52.124;5.196;2023-09-19T09:11:11;13.48;;;3.00;;
20734;SDS011;10528;52.124;5.196;2023-09-19T09:13:40;12.43;;;2.50;;
20734;SDS011;10528;52.124;5.196;2023-09-19T09:16:09;10.63;;;1.88;;
20734;SDS011;10528;52.124;5.196;2023-09-19T09:18:37;10.10;;;2.08;;
20734;SDS011;10528;52.124;5.196;2023-09-19T09:21:04;8.25;;;2.50;;
20734;SDS011;10528;52.124;5.196;2023-09-19T09:23:32;15.05;;;2.13;;
20734;SDS011;10528;52.124;5.196;2023-09-19T09:25:59;10.93;;;2.30;;
20734;SDS011;10528;52.124;5.196;2023-09-19T09:28:33;8.95;;;2.25;;
20734;SDS011;10528;52.124;5.196;2023-09-19T09:31:02;11.27;;;2.75;;
20734;SDS011;10528;52.124;5.196;2023-09-19T09:33:34;11.63;;;2.58;;
20734;SDS011;10528;52.124;5.196;2023-09-19T09:36:02;12.60;;;2.15;;
20734;SDS011;10528;52.124;5.196;2023-09-19T09:38:44;15.70;;;3.40;;
20734;SDS011;10528;52.124;5.196;2023-09-19T09:41:15;12.60;;;2.53;;
20734;SDS011;10528;52.124;5.196;2023-09-19T09:43:53;9.95;;;2.10;;
20734;SDS011;10528;52.124;5.196;2023-09-19T09:46:21;13.77;;;2.72;;
20734;SDS011;10528;52.124;5.196;2023-09-19T09:51:42;12.30;;;2.60;;
20734;SDS011;10528;52.124;5.196;2023-09-19T09:54:14;9.60;;;2.20;;
20734;SDS011;10528;52.124;5.196;2023-09-19T09:56:56;7.85;;;2.40;;
20734;SDS011;10528;52.124;5.196;2023-09-19T10:02:43;8.30;;;1.73;;
20734;SDS011;10528;52.124;5.196;2023-09-19T10:05:14;12.10;;;2.28;;
20734;SDS011;10528;52.124;5.196;2023-09-19T10:07:55;8.20;;;1.77;;
20734;SDS011;10528;52.124;5.196;2023-09-19T10:13:07;9.10;;;2.15;;
20734;SDS011;10528;52.124;5.196;2023-09-19T10:15:48;11.80;;;2.45;;
20734;SDS011;10528;52.124;5.196;2023-09-19T10:18:21;12.18;;;2.53;;
20734;SDS011;10528;52.124;5.196;2023-09-19T10:20:51;11.15;;;2.55;;
20734;SDS011;10528;52.124;5.196;2023-09-19T10:23:19;11.05;;;2.58;;
20734;SDS011;10528;52.124;5.196;2023-09-19T10:25:52;6.97;;;1.83;;
20734;SDS011;10528;52.124;5.196;2023-09-19T10:28:20;9.18;;;2.10;;
20734;SDS011;10528;52.124;5.196;2023-09-19T10:30:49;8.45;;;1.80;;
20734;SDS011;10528;52.124;5.196;2023-09-19T10:33:22;10.10;;;1.90;;
20734;SDS011;10528;52.124;5.196;2023-09-19T10:35:53;9.38;;;1.77;;
20734;SDS011;10528;52.124;5.196;2023-09-19T10:38:26;10.55;;;2.25;;
20734;SDS011;10528;52.124;5.196;2023-09-19T10:40:56;8.80;;;2.00;;
20734;SDS011;10528;52.124;5.196;2023-09-19T10:43:31;9.57;;;2.38;;
20734;SDS011;10528;52.124;5.196;2023-09-19T10:46:07;9.90;;;1.80;;
20734;SDS011;10528;52.124;5.196;2023-09-19T10:48:38;8.05;;;1.73;;
20734;SDS011;10528;52.124;5.196;2023-09-19T10:51:15;8.57;;;1.80;;
20734;SDS011;10528;52.124;5.196;2023-09-19T10:53:54;6.07;;;1.60;;
20734;SDS011;10528;52.124;5.196;2023-09-19T10:56:30;7.63;;;1.50;;
20734;SDS011;10528;52.124;5.196;2023-09-19T10:59:07;10.20;;;1.65;;
20734;SDS011;10528;52.124;5.196;2023-09-19T11:01:41;5.45;;;1.42;;
20734;SDS011;10528;52.124;5.196;2023-09-19T11:04:24;5.68;;;1.70;;
20734;SDS011;10528;52.124;5.196;2023-09-19T11:07:07;10.98;;;2.53;;
20734;SDS011;10528;52.124;5.196;2023-09-19T11:09:54;16.13;;;1.98;;
20734;SDS011;10528;52.124;5.196;2023-09-19T11:14:55;8.57;;;2.08;;
20734;SDS011;10528;52.124;5.196;2023-09-19T11:17:31;6.55;;;1.63;;
20734;SDS011;10528;52.124;5.196;2023-09-19T11:30:33;5.15;;;1.40;;
20734;SDS011;10528;52.124;5.196;2023-09-19T11:33:16;8.07;;;1.48;;
20734;SDS011;10528;52.124;5.196;2023-09-19T11:36:06;9.25;;;2.03;;
20734;SDS011;10528;52.124;5.196;2023-09-19T11:46:30;5.93;;;1.50;;
20734;SDS011;10528;52.124;5.196;2023-09-19T11:49:06;6.65;;;1.42;;
20734;SDS011;10528;52.124;5.196;2023-09-19T11:51:40;6.82;;;1.13;;
20734;SDS011;10528;52.124;5.196;2023-09-19T11:54:11;7.40;;;1.38;;
20734;SDS011;10528;52.124;5.196;2023-09-19T11:56:49;5.75;;;1.48;;
20734;SDS011;10528;52.124;5.196;2023-09-19T11:59:24;5.40;;;1.10;;
20734;SDS011;10528;52.124;5.196;2023-09-19T12:01:57;5.13;;;1.15;;
20734;SDS011;10528;52.124;5.196;2023-09-19T12:04:35;5.47;;;1.00;;
20734;SDS011;10528;52.124;5.196;2023-09-19T12:07:09;4.40;;;1.13;;
20734;SDS011;10528;52.124;5.196;2023-09-19T12:09:43;4.10;;;1.20;;
20734;SDS011;10528;52.124;5.196;2023-09-19T12:12:22;6.28;;;1.02;;
20734;SDS011;10528;52.124;5.196;2023-09-19T12:14:56;4.15;;;1.00;;
20734;SDS011;10528;52.124;5.196;2023-09-19T12:17:46;7.40;;;1.20;;
20734;SDS011;10528;52.124;5.196;2023-09-19T12:20:13;5.18;;;1.20;;
20734;SDS011;10528;52.124;5.196;2023-09-19T12:22:43;6.22;;;1.25;;
20734;SDS011;10528;52.124;5.196;2023-09-19T12:25:13;5.90;;;1.88;;
20734;SDS011;10528;52.124;5.196;2023-09-19T12:27:43;4.80;;;1.58;;
20734;SDS011;10528;52.124;5.196;2023-09-19T12:30:26;5.22;;;1.23;;
20734;SDS011;10528;52.124;5.196;2023-09-19T12:32:54;4.78;;;1.08;;
20734;SDS011;10528;52.124;5.196;2023-09-19T12:35:28;5.30;;;1.08;;
20734;SDS011;10528;52.124;5.196;2023-09-19T12:37:57;6.80;;;1.33;;
20734;SDS011;10528;52.124;5.196;2023-09-19T12:40:25;3.42;;;0.93;;
20734;SDS011;10528;52.124;5.196;2023-09-19T12:42:56;5.00;;;1.08;;
20734;SDS011;10528;52.124;5.196;2023-09-19T12:45:33;6.13;;;1.38;;
20734;SDS011;10528;52.124;5.196;2023-09-19T12:48:38;3.80;;;1.30;;
20734;SDS011;10528;52.124;5.196;2023-09-19T12:51:04;7.22;;;1.30;;
20734;SDS011;10528;52.124;5.196;2023-09-19T12:53:40;5.40;;;0.88;;
20734;SDS011;10528;52.124;5.196;2023-09-19T12:56:12;7.03;;;1.33;;
20734;SDS011;10528;52.124;5.196;2023-09-19T13:01:23;4.53;;;1.10;;
20734;SDS011;10528;52.124;5.196;2023-09-19T13:06:48;4.55;;;1.05;;
20734;SDS011;10528;52.124;5.196;2023-09-19T13:09:17;5.25;;;1.25;;
20734;SDS011;10528;52.124;5.196;2023-09-19T13:11:47;3.30;;;0.90;;
20734;SDS011;10528;52.124;5.196;2023-09-19T13:14:23;5.55;;;1.17;;
20734;SDS011;10528;52.124;5.196;2023-09-19T13:16:58;6.68;;;1.30;;
20734;SDS011;10528;52.124;5.196;2023-09-19T13:25:12;4.80;;;1.10;;
20734;SDS011;10528;52.124;5.196;2023-09-19T13:27:53;8.57;;;1.95;;
20734;SDS011;10528;52.124;5.196;2023-09-19T13:30:23;3.92;;;1.00;;
20734;SDS011;10528;52.124;5.196;2023-09-19T13:33:05;8.23;;;1.08;;
20734;SDS011;10528;52.124;5.196;2023-09-19T13:35:38;5.40;;;0.98;;
20734;SDS011;10528;52.124;5.196;2023-09-19T13:38:08;4.78;;;0.90;;
20734;SDS011;10528;52.124;5.196;2023-09-19T13:40:38;5.43;;;1.05;;
20734;SDS011;10528;52.124;5.196;2023-09-19T13:43:08;4.28;;;1.00;;
20734;SDS011;10528;52.124;5.196;2023-09-19T13:45:35;4.55;;;0.82;;
20734;SDS011;10528;52.124;5.196;2023-09-19T13:48:03;4.55;;;1.00;;
20734;SDS011;10528;52.124;5.196;2023-09-19T13:50:31;3.20;;;0.95;;
20734;SDS011;10528;52.124;5.196;2023-09-19T13:52:58;6.35;;;1.27;;
20734;SDS011;10528;52.124;5.196;2023-09-19T13:55:26;4.63;;;1.00;;
20734;SDS011;10528;52.124;5.196;2023-09-19T13:57:53;2.80;;;0.95;;
20734;SDS011;10528;52.124;5.196;2023-09-19T14:00:22;6.75;;;1.33;;
20734;SDS011;10528;52.124;5.196;2023-09-19T14:02:50;3.45;;;1.13;;
20734;SDS011;10528;52.124;5.196;2023-09-19T14:05:18;2.17;;;0.90;;
20734;SDS011;10528;52.124;5.196;2023-09-19T14:07:47;4.72;;;1.17;;
20734;SDS011;10528;52.124;5.196;2023-09-19T14:10:14;3.00;;;0.93;;
20734;SDS011;10528;52.124;5.196;2023-09-19T14:12:42;5.72;;;1.10;;
20734;SDS011;10528;52.124;5.196;2023-09-19T14:15:11;4.57;;;1.17;;
20734;SDS011;10528;52.124;5.196;2023-09-19T14:17:39;7.60;;;1.17;;
20734;SDS011;10528;52.124;5.196;2023-09-19T14:20:12;2.75;;;1.20;;
20734;SDS011;10528;52.124;5.196;2023-09-19T14:22:40;9.27;;;1.73;;
20734;SDS011;10528;52.124;5.196;2023-09-19T14:25:07;3.80;;;1.70;;
20734;SDS011;10528;52.124;5.196;2023-09-19T14:27:35;6.88;;;1.73;;
20734;SDS011;10528;52.124;5.196;2023-09-19T14:30:02;6.07;;;1.60;;
20734;SDS011;10528;52.124;5.196;2023-09-19T14:32:30;4.43;;;1.40;;
20734;SDS011;10528;52.124;5.196;2023-09-19T14:34:57;6.93;;;1.58;;
20734;SDS011;10528;52.124;5.196;2023-09-19T14:37:25;5.03;;;1.60;;
20734;SDS011;10528;52.124;5.196;2023-09-19T14:39:56;5.75;;;1.60;;
20734;SDS011;10528;52.124;5.196;2023-09-19T14:42:23;3.78;;;1.52;;
20734;SDS011;10528;52.124;5.196;2023-09-19T14:44:50;6.05;;;1.30;;
20734;SDS011;10528;52.124;5.196;2023-09-19T14:47:17;6.93;;;1.77;;
20734;SDS011;10528;52.124;5.196;2023-09-19T14:49:45;6.00;;;1.70;;
20734;SDS011;10528;52.124;5.196;2023-09-19T14:52:12;3.38;;;1.25;;
20734;SDS011;10528;52.124;5.196;2023-09-19T14:54:42;6.47;;;1.88;;
20734;SDS011;10528;52.124;5.196;2023-09-19T14:57:09;6.88;;;1.58;;
20734;SDS011;10528;52.124;5.196;2023-09-19T14:59:36;5.97;;;1.70;;
20734;SDS011;10528;52.124;5.196;2023-09-19T15:02:04;6.00;;;1.80;;
20734;SDS011;10528;52.124;5.196;2023-09-19T15:04:31;8.07;;;1.50;;
20734;SDS011;10528;52.124;5.196;2023-09-19T15:07:00;7.97;;;1.80;;
20734;SDS011;10528;52.124;5.196;2023-09-19T15:09:27;8.30;;;1.85;;
20734;SDS011;10528;52.124;5.196;2023-09-19T15:11:55;6.05;;;1.80;;
20734;SDS011;10528;52.124;5.196;2023-09-19T15:14:22;6.60;;;1.73;;
20734;SDS011;10528;52.124;5.196;2023-09-19T15:16:51;5.60;;;1.73;;
20734;SDS011;10528;52.124;5.196;2023-09-19T15:19:18;6.22;;;1.60;;
20734;SDS011;10528;52.124;5.196;2023-09-19T15:21:45;8.02;;;1.83;;
20734;SDS011;10528;52.124;5.196;2023-09-19T15:24:12;8.35;;;1.58;;
20734;SDS011;10528;52.124;5.196;2023-09-19T15:26:39;7.50;;;1.48;;
20734;SDS011;10528;52.124;5.196;2023-09-19T15:29:07;6.40;;;1.58;;
20734;SDS011;10528;52.124;5.196;2023-09-19T15:31:35;6.10;;;2.00;;
20734;SDS011;10528;52.124;5.196;2023-09-19T15:34:05;9.90;;;1.98;;
20734;SDS011;10528;52.124;5.196;2023-09-19T15:36:34;6.40;;;1.90;;
20734;SDS011;10528;52.124;5.196;2023-09-19T15:39:04;5.55;;;1.60;;
20734;SDS011;10528;52.124;5.196;2023-09-19T15:41:37;4.78;;;1.42;;
20734;SDS011;10528;52.124;5.196;2023-09-19T15:44:16;6.35;;;1.85;;
20734;SDS011;10528;52.124;5.196;2023-09-19T15:46:48;4.55;;;1.83;;
20734;SDS011;10528;52.124;5.196;2023-09-19T15:49:15;6.20;;;1.80;;
20734;SDS011;10528;52.124;5.196;2023-09-19T15:51:42;9.50;;;2.05;;
20734;SDS011;10528;52.124;5.196;2023-09-19T15:54:13;5.85;;;1.70;;
20734;SDS011;10528;52.124;5.196;2023-09-19T15:56:42;7.70;;;1.77;;
20734;SDS011;10528;52.124;5.196;2023-09-19T15:59:10;6.57;;;1.75;;
20734;SDS011;10528;52.124;5.196;2023-09-19T16:01:39;5.63;;;1.90;;
20734;SDS011;10528;52.124;5.196;2023-09-19T16:04:09;5.72;;;1.73;;